sensor_id;sensor_type;location;lat;lon;timestamp;pressure;altitude;pressure_sealevel;temperature;humidity
71697;BME280;68167;59.120;37.898;2023-03-22T00:01:19;99089.47;;;-1.44;69.81
71697;BME280;68167;59.120;37.898;2023-03-22T00:03:46;99134.91;;;-1.12;69.87
71697;BME280;68167;59.120;37.898;2023-03-22T00:06:13;99169.72;;;-0.92;69.72
71697;BME280;68167;59.120;37.898;2023-03-22T00:08:41;99173.34;;;-0.93;69.56
71697;BME280;68167;59.120;37.898;2023-03-22T00:11:08;99164.09;;;-0.95;70.01
71697;BME280;68167;59.120;37.898;2023-03-22T00:13:35;99164.50;;;-0.92;69.67
71697;BME280;68167;59.120;37.898;2023-03-22T00:16:04;99144.56;;;-1.13;69.48
71697;BME280;68167;59.120;37.898;2023-03-22T00:18:30;99160.84;;;-1.11;69.32
71697;BME280;68167;59.120;37.898;2023-03-22T00:20:58;99026.50;;;-1.89;69.63
71697;BME280;68167;59.120;37.898;2023-03-22T00:23:24;99108.75;;;-1.39;69.74
71697;BME280;68167;59.120;37.898;2023-03-22T00:25:51;99060.28;;;-1.74;69.45
71697;BME280;68167;59.120;37.898;2023-03-22T00:28:18;99170.09;;;-1.02;69.89
71697;BME280;68167;59.120;37.898;2023-03-22T00:30:53;99105.53;;;-1.41;69.81
71697;BME280;68167;59.120;37.898;2023-03-22T00:33:20;99174.53;;;-1.02;69.68
71697;BME280;68167;59.120;37.898;2023-03-22T00:35:57;98977.44;;;-2.26;69.77
71697;BME280;68167;59.120;37.898;2023-03-22T00:38:24;99104.53;;;-1.46;69.59
71697;BME280;68167;59.120;37.898;2023-03-22T00:40:52;99168.25;;;-1.14;69.59
71697;BME280;68167;59.120;37.898;2023-03-22T00:43:18;99146.72;;;-1.29;69.71
71697;BME280;68167;59.120;37.898;2023-03-22T00:45:45;99209.88;;;-1.00;69.62
71697;BME280;68167;59.120;37.898;2023-03-22T00:48:11;99199.63;;;-1.08;69.67
71697;BME280;68167;59.120;37.898;2023-03-22T00:50:38;99190.81;;;-1.00;69.32
71697;BME280;68167;59.120;37.898;2023-03-22T00:53:05;99150.56;;;-1.32;69.52
71697;BME280;68167;59.120;37.898;2023-03-22T00:55:31;99202.06;;;-1.00;69.29
71697;BME280;68167;59.120;37.898;2023-03-22T00:57:58;99059.63;;;-1.83;69.60
71697;BME280;68167;59.120;37.898;2023-03-22T01:00:24;99121.19;;;-1.47;69.51
71697;BME280;68167;59.120;37.898;2023-03-22T01:02:52;99203.66;;;-0.98;69.44
71697;BME280;68167;59.120;37.898;2023-03-22T01:05:20;99184.13;;;-1.09;69.28
71697;BME280;68167;59.120;37.898;2023-03-22T01:07:48;99186.72;;;-1.16;69.38
71697;BME280;68167;59.120;37.898;2023-03-22T01:10:17;99198.59;;;-1.07;69.27
71697;BME280;68167;59.120;37.898;2023-03-22T01:12:44;98974.84;;;-2.68;69.31
71697;BME280;68167;59.120;37.898;2023-03-22T01:15:11;99218.69;;;-1.07;69.26
71697;BME280;68167;59.120;37.898;2023-03-22T01:17:37;99213.44;;;-1.14;69.44
71697;BME280;68167;59.120;37.898;2023-03-22T01:20:04;99197.75;;;-1.20;69.61
71697;BME280;68167;59.120;37.898;2023-03-22T01:22:31;99166.75;;;-1.43;69.35
71697;BME280;68167;59.120;37.898;2023-03-22T01:24:58;99158.69;;;-1.55;69.54
71697;BME280;68167;59.120;37.898;2023-03-22T01:27:24;99228.50;;;-1.16;69.47
71697;BME280;68167;59.120;37.898;2023-03-22T01:29:50;99223.44;;;-1.24;69.21
71697;BME280;68167;59.120;37.898;2023-03-22T01:32:17;99234.31;;;-1.20;69.46
71697;BME280;68167;59.120;37.898;2023-03-22T01:34:44;99226.44;;;-1.27;69.44
71697;BME280;68167;59.120;37.898;2023-03-22T01:37:11;99228.66;;;-1.24;69.49
71697;BME280;68167;59.120;37.898;2023-03-22T01:39:42;99225.03;;;-1.29;69.87
71697;BME280;68167;59.120;37.898;2023-03-22T01:42:13;99220.00;;;-1.38;69.87
71697;BME280;68167;59.120;37.898;2023-03-22T01:44:42;99168.06;;;-1.67;69.86
71697;BME280;68167;59.120;37.898;2023-03-22T01:47:10;99171.03;;;-1.70;69.71
71697;BME280;68167;59.120;37.898;2023-03-22T01:49:37;99249.97;;;-1.20;69.87
71697;BME280;68167;59.120;37.898;2023-03-22T01:52:11;99171.25;;;-1.72;69.62
71697;BME280;68167;59.120;37.898;2023-03-22T01:54:49;99258.81;;;-1.21;69.85
71697;BME280;68167;59.120;37.898;2023-03-22T01:57:38;99233.84;;;-1.37;69.87
71697;BME280;68167;59.120;37.898;2023-03-22T02:00:12;99109.03;;;-2.16;70.19
71697;BME280;68167;59.120;37.898;2023-03-22T02:02:55;99254.97;;;-1.25;69.90
71697;BME280;68167;59.120;37.898;2023-03-22T02:05:28;99248.50;;;-1.36;69.82
71697;BME280;68167;59.120;37.898;2023-03-22T02:07:58;99261.56;;;-1.36;69.71
71697;BME280;68167;59.120;37.898;2023-03-22T02:10:26;99203.53;;;-1.73;69.90
71697;BME280;68167;59.120;37.898;2023-03-22T02:35:41;99307.06;;;-1.45;70.33
71697;BME280;68167;59.120;37.898;2023-03-22T02:40:51;99314.72;;;-1.44;70.61
71697;BME280;68167;59.120;37.898;2023-03-22T02:43:37;99307.50;;;-1.42;70.22
71697;BME280;68167;59.120;37.898;2023-03-22T02:46:10;99307.47;;;-1.48;70.42
71697;BME280;68167;59.120;37.898;2023-03-22T02:48:41;99261.50;;;-1.77;70.44
71697;BME280;68167;59.120;37.898;2023-03-22T02:51:43;99304.66;;;-1.47;70.68
71697;BME280;68167;59.120;37.898;2023-03-22T02:54:25;99299.56;;;-1.55;70.73
71697;BME280;68167;59.120;37.898;2023-03-22T02:59:55;99321.13;;;-1.46;70.21
71697;BME280;68167;59.120;37.898;2023-03-22T03:02:25;99305.38;;;-1.59;70.73
71697;BME280;68167;59.120;37.898;2023-03-22T03:04:53;99311.63;;;-1.54;70.77
71697;BME280;68167;59.120;37.898;2023-03-22T03:07:23;99325.78;;;-1.42;70.73
71697;BME280;68167;59.120;37.898;2023-03-22T03:09:52;99275.09;;;-1.82;70.77
71697;BME280;68167;59.120;37.898;2023-03-22T03:12:23;99333.34;;;-1.47;70.61
71697;BME280;68167;59.120;37.898;2023-03-22T03:14:53;99196.66;;;-2.36;70.47
71697;BME280;68167;59.120;37.898;2023-03-22T03:32:56;99328.97;;;-1.68;70.81
71697;BME280;68167;59.120;37.898;2023-03-22T03:35:33;99319.69;;;-1.77;70.77
71697;BME280;68167;59.120;37.898;2023-03-22T03:38:08;99258.59;;;-2.17;70.93
71697;BME280;68167;59.120;37.898;2023-03-22T03:40:39;99338.63;;;-1.68;70.63
71697;BME280;68167;59.120;37.898;2023-03-22T03:43:07;99277.31;;;-2.07;71.05
71697;BME280;68167;59.120;37.898;2023-03-22T03:45:35;99348.25;;;-1.69;70.89
71697;BME280;68167;59.120;37.898;2023-03-22T03:48:09;99339.41;;;-1.68;70.76
71697;BME280;68167;59.120;37.898;2023-03-22T03:50:38;99369.41;;;-1.57;70.85
71697;BME280;68167;59.120;37.898;2023-03-22T03:53:05;99132.41;;;-3.00;70.63
71697;BME280;68167;59.120;37.898;2023-03-22T03:55:32;99285.34;;;-2.08;71.03
71697;BME280;68167;59.120;37.898;2023-03-22T03:57:58;99322.97;;;-1.89;70.81
71697;BME280;68167;59.120;37.898;2023-03-22T04:00:24;99273.66;;;-2.12;70.93
71697;BME280;68167;59.120;37.898;2023-03-22T04:03:11;99377.66;;;-1.53;70.74
71697;BME280;68167;59.120;37.898;2023-03-22T04:05:53;99276.28;;;-2.12;70.78
71697;BME280;68167;59.120;37.898;2023-03-22T04:08:20;99286.19;;;-2.01;70.51
71697;BME280;68167;59.120;37.898;2023-03-22T04:10:50;99315.59;;;-1.86;70.69
71697;BME280;68167;59.120;37.898;2023-03-22T04:13:18;99370.41;;;-1.58;71.26
71697;BME280;68167;59.120;37.898;2023-03-22T04:15:54;99374.50;;;-1.49;70.81
71697;BME280;68167;59.120;37.898;2023-03-22T04:18:22;99360.16;;;-1.59;70.63
71697;BME280;68167;59.120;37.898;2023-03-22T04:20:49;99366.63;;;-1.55;70.48
71697;BME280;68167;59.120;37.898;2023-03-22T04:23:19;99378.09;;;-1.50;70.33
71697;BME280;68167;59.120;37.898;2023-03-22T04:25:48;99202.88;;;-2.58;70.63
71697;BME280;68167;59.120;37.898;2023-03-22T04:28:19;99271.63;;;-2.17;70.61
71697;BME280;68167;59.120;37.898;2023-03-22T04:30:47;99381.38;;;-1.41;70.48
71697;BME280;68167;59.120;37.898;2023-03-22T04:33:17;99346.00;;;-1.72;70.66
71697;BME280;68167;59.120;37.898;2023-03-22T04:36:06;99345.00;;;-1.71;70.65
71697;BME280;68167;59.120;37.898;2023-03-22T04:38:43;99429.13;;;-1.19;70.58
71697;BME280;68167;59.120;37.898;2023-03-22T04:41:17;99416.88;;;-1.19;70.96
71697;BME280;68167;59.120;37.898;2023-03-22T04:43:47;99426.78;;;-1.08;70.29
71697;BME280;68167;59.120;37.898;2023-03-22T04:46:16;99354.25;;;-1.47;70.56
71697;BME280;68167;59.120;37.898;2023-03-22T04:49:25;99427.13;;;-0.89;70.74
71697;BME280;68167;59.120;37.898;2023-03-22T04:51:57;99437.75;;;-0.91;70.16
71697;BME280;68167;59.120;37.898;2023-03-22T04:54:34;99353.91;;;-1.37;70.41
71697;BME280;68167;59.120;37.898;2023-03-22T04:57:02;99422.72;;;-0.89;70.38
71697;BME280;68167;59.120;37.898;2023-03-22T04:59:58;99431.47;;;-0.69;70.81
71697;BME280;68167;59.120;37.898;2023-03-22T05:02:25;99368.53;;;-1.08;70.09
71697;BME280;68167;59.120;37.898;2023-03-22T05:04:52;99391.75;;;-0.92;70.45
71697;BME280;68167;59.120;37.898;2023-03-22T05:07:33;99397.41;;;-0.88;70.05
71697;BME280;68167;59.120;37.898;2023-03-22T05:10:01;99360.31;;;-1.05;70.08
71697;BME280;68167;59.120;37.898;2023-03-22T05:12:29;99426.25;;;-0.62;69.84
71697;BME280;68167;59.120;37.898;2023-03-22T05:15:14;99438.16;;;-0.53;69.33
71697;BME280;68167;59.120;37.898;2023-03-22T05:17:41;99447.69;;;-0.39;69.54
71697;BME280;68167;59.120;37.898;2023-03-22T05:20:09;99396.09;;;-0.71;69.35
71697;BME280;68167;59.120;37.898;2023-03-22T05:22:39;99449.91;;;-0.36;69.38
71697;BME280;68167;59.120;37.898;2023-03-22T05:25:07;99432.75;;;-0.51;68.88
71697;BME280;68167;59.120;37.898;2023-03-22T05:27:34;99445.34;;;-0.27;69.64
71697;BME280;68167;59.120;37.898;2023-03-22T05:30:22;99411.06;;;-0.45;69.32
71697;BME280;68167;59.120;37.898;2023-03-22T05:33:02;99448.19;;;-0.15;69.33
71697;BME280;68167;59.120;37.898;2023-03-22T05:35:30;99454.66;;;-0.11;68.90
71697;BME280;68167;59.120;37.898;2023-03-22T05:37:59;99454.03;;;-0.13;68.77
71697;BME280;68167;59.120;37.898;2023-03-22T05:40:28;99424.84;;;-0.23;68.72
71697;BME280;68167;59.120;37.898;2023-03-22T05:43:22;99470.38;;;0.02;68.72
71697;BME280;68167;59.120;37.898;2023-03-22T05:45:50;99466.38;;;-0.01;68.76
71697;BME280;68167;59.120;37.898;2023-03-22T05:48:30;99475.03;;;0.07;68.56
71697;BME280;68167;59.120;37.898;2023-03-22T05:50:56;99462.34;;;-0.03;68.56
71697;BME280;68167;59.120;37.898;2023-03-22T05:53:23;99483.66;;;0.07;68.16
71697;BME280;68167;59.120;37.898;2023-03-22T05:56:05;99392.97;;;-0.47;67.81
71697;BME280;68167;59.120;37.898;2023-03-22T05:58:35;99447.41;;;-0.16;68.20
71697;BME280;68167;59.120;37.898;2023-03-22T06:01:10;99411.72;;;-0.37;68.57
71697;BME280;68167;59.120;37.898;2023-03-22T06:03:57;99459.31;;;-0.07;68.37
71697;BME280;68167;59.120;37.898;2023-03-22T06:06:30;99478.22;;;0.02;68.43
71697;BME280;68167;59.120;37.898;2023-03-22T06:09:25;99417.34;;;-0.33;68.06
71697;BME280;68167;59.120;37.898;2023-03-22T06:11:52;99489.53;;;0.09;68.32
71697;BME280;68167;59.120;37.898;2023-03-22T06:14:19;99417.31;;;-0.40;67.95
71697;BME280;68167;59.120;37.898;2023-03-22T06:17:11;99495.97;;;0.13;67.80
71697;BME280;68167;59.120;37.898;2023-03-22T06:19:38;99480.44;;;0.05;68.25
71697;BME280;68167;59.120;37.898;2023-03-22T06:22:06;99334.09;;;-0.90;68.11
71697;BME280;68167;59.120;37.898;2023-03-22T06:24:35;99473.66;;;0.17;68.12
71697;BME280;68167;59.120;37.898;2023-03-22T06:27:03;99505.69;;;0.32;68.04
71697;BME280;68167;59.120;37.898;2023-03-22T06:29:30;99411.38;;;-0.20;67.58
71697;BME280;68167;59.120;37.898;2023-03-22T06:31:59;99491.81;;;0.39;67.57
71697;BME280;68167;59.120;37.898;2023-03-22T06:34:25;99504.75;;;0.53;67.22
71697;BME280;68167;59.120;37.898;2023-03-22T06:36:52;99422.28;;;0.03;67.62
71697;BME280;68167;59.120;37.898;2023-03-22T06:39:38;99463.03;;;0.32;67.52
71697;BME280;68167;59.120;37.898;2023-03-22T06:42:08;99429.16;;;0.17;67.38
71697;BME280;68167;59.120;37.898;2023-03-22T06:44:34;99499.13;;;0.63;67.15
71697;BME280;68167;59.120;37.898;2023-03-22T06:47:21;99444.91;;;0.37;66.63
71697;BME280;68167;59.120;37.898;2023-03-22T06:50:10;99425.78;;;0.30;67.02
71697;BME280;68167;59.120;37.898;2023-03-22T06:53:00;99433.84;;;0.42;67.14
71697;BME280;68167;59.120;37.898;2023-03-22T06:55:26;99503.38;;;0.90;66.96
71697;BME280;68167;59.120;37.898;2023-03-22T06:57:53;99429.41;;;0.49;66.36
71697;BME280;68167;59.120;37.898;2023-03-22T07:00:20;99439.91;;;0.62;66.54
71697;BME280;68167;59.120;37.898;2023-03-22T07:02:46;99441.13;;;0.59;66.32
71697;BME280;68167;59.120;37.898;2023-03-22T07:05:36;99490.28;;;0.97;66.42
71697;BME280;68167;59.120;37.898;2023-03-22T07:08:02;99476.16;;;0.98;66.25
71697;BME280;68167;59.120;37.898;2023-03-22T07:10:29;99453.00;;;0.88;66.35
71697;BME280;68167;59.120;37.898;2023-03-22T07:12:55;99502.78;;;1.15;65.76
71697;BME280;68167;59.120;37.898;2023-03-22T07:15:22;99394.59;;;0.55;65.80
71697;BME280;68167;59.120;37.898;2023-03-22T07:18:03;99464.06;;;1.04;65.61
71697;BME280;68167;59.120;37.898;2023-03-22T07:20:35;99524.91;;;1.45;65.43
71697;BME280;68167;59.120;37.898;2023-03-22T07:23:07;99474.75;;;1.22;65.31
71697;BME280;68167;59.120;37.898;2023-03-22T07:25:43;99534.78;;;1.63;64.92
71697;BME280;68167;59.120;37.898;2023-03-22T07:28:21;99458.41;;;1.26;64.93
71697;BME280;68167;59.120;37.898;2023-03-22T07:30:48;99544.66;;;1.68;64.98
71697;BME280;68167;59.120;37.898;2023-03-22T07:33:17;99503.72;;;1.53;64.49
71697;BME280;68167;59.120;37.898;2023-03-22T07:35:43;99525.06;;;1.77;65.46
71697;BME280;68167;59.120;37.898;2023-03-22T07:38:09;99510.09;;;1.90;65.45
71697;BME280;68167;59.120;37.898;2023-03-22T07:40:36;99475.38;;;1.88;66.05
71697;BME280;68167;59.120;37.898;2023-03-22T07:43:03;99537.09;;;2.49;66.59
71697;BME280;68167;59.120;37.898;2023-03-22T07:45:55;99470.69;;;2.35;67.12
71697;BME280;68167;59.120;37.898;2023-03-22T07:48:47;99507.28;;;2.61;66.86
71697;BME280;68167;59.120;37.898;2023-03-22T07:51:32;99494.88;;;2.75;66.41
71697;BME280;68167;59.120;37.898;2023-03-22T07:54:00;99524.16;;;3.10;65.34
71697;BME280;68167;59.120;37.898;2023-03-22T07:56:26;99495.69;;;3.01;65.51
71697;BME280;68167;59.120;37.898;2023-03-22T07:58:52;99552.56;;;3.45;65.39
71697;BME280;68167;59.120;37.898;2023-03-22T08:01:19;99535.91;;;3.51;65.42
71697;BME280;68167;59.120;37.898;2023-03-22T08:04:18;99528.56;;;3.59;65.45
71697;BME280;68167;59.120;37.898;2023-03-22T08:07:04;99501.59;;;3.64;65.25
71697;BME280;68167;59.120;37.898;2023-03-22T08:09:31;99484.03;;;3.58;64.13
71697;BME280;68167;59.120;37.898;2023-03-22T08:11:58;99490.16;;;3.52;63.13
71697;BME280;68167;59.120;37.898;2023-03-22T08:14:24;99538.50;;;3.76;62.66
71697;BME280;68167;59.120;37.898;2023-03-22T08:16:51;99543.78;;;3.76;61.71
71697;BME280;68167;59.120;37.898;2023-03-22T08:19:17;99529.13;;;3.61;61.50
71697;BME280;68167;59.120;37.898;2023-03-22T08:21:44;99495.13;;;3.42;61.18
71697;BME280;68167;59.120;37.898;2023-03-22T08:24:28;99554.09;;;3.77;61.02
71697;BME280;68167;59.120;37.898;2023-03-22T08:27:04;99550.28;;;3.73;60.47
71697;BME280;68167;59.120;37.898;2023-03-22T08:29:44;99550.13;;;3.68;60.18
71697;BME280;68167;59.120;37.898;2023-03-22T08:32:11;99540.75;;;3.54;60.08
71697;BME280;68167;59.120;37.898;2023-03-22T08:34:42;99520.09;;;3.33;60.16
71697;BME280;68167;59.120;37.898;2023-03-22T08:37:09;99546.28;;;3.46;59.16
71697;BME280;68167;59.120;37.898;2023-03-22T08:39:37;99553.75;;;3.49;59.00
71697;BME280;68167;59.120;37.898;2023-03-22T08:42:26;99569.97;;;3.46;59.34
71697;BME280;68167;59.120;37.898;2023-03-22T08:44:52;99489.22;;;3.03;58.97
71697;BME280;68167;59.120;37.898;2023-03-22T08:47:21;99556.97;;;3.51;59.19
71697;BME280;68167;59.120;37.898;2023-03-22T08:49:52;99509.13;;;3.36;59.19
71697;BME280;68167;59.120;37.898;2023-03-22T08:52:23;99439.59;;;2.88;58.56
71697;BME280;68167;59.120;37.898;2023-03-22T08:55:00;99492.28;;;3.25;58.93
71697;BME280;68167;59.120;37.898;2023-03-22T08:57:50;99560.72;;;3.61;58.18
71697;BME280;68167;59.120;37.898;2023-03-22T09:00:27;99555.66;;;3.60;58.04
71697;BME280;68167;59.120;37.898;2023-03-22T09:03:16;99542.16;;;3.56;57.89
71697;BME280;68167;59.120;37.898;2023-03-22T09:05:43;99467.47;;;3.14;58.12
71697;BME280;68167;59.120;37.898;2023-03-22T09:08:10;99539.81;;;3.67;58.33
71697;BME280;68167;59.120;37.898;2023-03-22T09:10:43;99560.47;;;3.88;57.92
71697;BME280;68167;59.120;37.898;2023-03-22T09:13:13;99556.88;;;4.01;58.36
71697;BME280;68167;59.120;37.898;2023-03-22T09:15:50;99562.94;;;4.01;57.24
71697;BME280;68167;59.120;37.898;2023-03-22T09:18:26;99549.75;;;4.01;57.50
71697;BME280;68167;59.120;37.898;2023-03-22T09:20:55;99504.50;;;3.92;57.26
71697;BME280;68167;59.120;37.898;2023-03-22T09:23:26;99534.75;;;4.20;57.45
71697;BME280;68167;59.120;37.898;2023-03-22T09:25:54;99567.59;;;4.36;57.12
71697;BME280;68167;59.120;37.898;2023-03-22T09:28:23;99521.97;;;4.23;56.21
71697;BME280;68167;59.120;37.898;2023-03-22T09:30:51;99540.00;;;4.38;55.80
71697;BME280;68167;59.120;37.898;2023-03-22T09:33:17;99486.50;;;4.08;55.79
71697;BME280;68167;59.120;37.898;2023-03-22T09:35:47;99425.28;;;3.64;55.12
71697;BME280;68167;59.120;37.898;2023-03-22T09:38:14;99551.13;;;4.40;55.10
71697;BME280;68167;59.120;37.898;2023-03-22T09:40:55;99481.22;;;4.08;55.39
71697;BME280;68167;59.120;37.898;2023-03-22T09:43:36;99553.38;;;4.55;55.33
71697;BME280;68167;59.120;37.898;2023-03-22T09:46:12;99548.00;;;4.61;54.39
71697;BME280;68167;59.120;37.898;2023-03-22T09:48:41;99525.97;;;4.56;53.67
71697;BME280;68167;59.120;37.898;2023-03-22T09:51:36;99551.41;;;4.80;55.37
71697;BME280;68167;59.120;37.898;2023-03-22T09:54:20;99557.72;;;4.91;53.95
71697;BME280;68167;59.120;37.898;2023-03-22T09:59:41;99543.66;;;4.97;53.37
71697;BME280;68167;59.120;37.898;2023-03-22T10:10:22;99545.88;;;5.70;52.41
71697;BME280;68167;59.120;37.898;2023-03-22T10:16:03;99538.84;;;5.87;53.38
71697;BME280;68167;59.120;37.898;2023-03-22T10:18:40;99523.38;;;5.91;51.10
71697;BME280;68167;59.120;37.898;2023-03-22T10:21:12;99539.66;;;6.00;50.47
71697;BME280;68167;59.120;37.898;2023-03-22T10:26:06;99514.97;;;5.94;49.65
71697;BME280;68167;59.120;37.898;2023-03-22T10:28:36;99552.84;;;6.11;49.82
71697;BME280;68167;59.120;37.898;2023-03-22T10:31:04;99541.22;;;6.24;50.05
71697;BME280;68167;59.120;37.898;2023-03-22T10:36:30;99483.47;;;6.04;50.02
71697;BME280;68167;59.120;37.898;2023-03-22T10:41:43;99517.97;;;6.38;49.08
71697;BME280;68167;59.120;37.898;2023-03-22T10:44:15;99418.03;;;5.94;48.90
71697;BME280;68167;59.120;37.898;2023-03-22T10:46:43;99487.94;;;6.44;48.44
71697;BME280;68167;59.120;37.898;2023-03-22T10:49:21;99477.13;;;6.45;49.08
71697;BME280;68167;59.120;37.898;2023-03-22T10:51:50;99533.94;;;6.88;49.02
71697;BME280;68167;59.120;37.898;2023-03-22T10:54:20;99526.50;;;7.02;48.82
71697;BME280;68167;59.120;37.898;2023-03-22T10:56:47;99518.25;;;7.15;48.76
71697;BME280;68167;59.120;37.898;2023-03-22T10:59:43;99537.78;;;7.47;50.12
71697;BME280;68167;59.120;37.898;2023-03-22T11:02:30;99522.69;;;7.65;50.61
71697;BME280;68167;59.120;37.898;2023-03-22T11:05:04;99529.09;;;7.90;49.41
71697;BME280;68167;59.120;37.898;2023-03-22T11:07:42;99495.41;;;8.08;48.55
71697;BME280;68167;59.120;37.898;2023-03-22T11:12:38;99479.41;;;8.46;47.06
71697;BME280;68167;59.120;37.898;2023-03-22T11:15:25;99501.72;;;8.77;47.22
71697;BME280;68167;59.120;37.898;2023-03-22T11:17:56;99464.28;;;8.74;47.19
71697;BME280;68167;59.120;37.898;2023-03-22T11:20:24;99498.84;;;9.16;47.13
71697;BME280;68167;59.120;37.898;2023-03-22T11:22:50;99507.22;;;9.35;45.48
71697;BME280;68167;59.120;37.898;2023-03-22T11:25:23;99475.03;;;9.26;45.07
71697;BME280;68167;59.120;37.898;2023-03-22T11:28:08;99491.56;;;9.38;46.36
71697;BME280;68167;59.120;37.898;2023-03-22T11:30:35;99498.84;;;9.53;45.85
71697;BME280;68167;59.120;37.898;2023-03-22T11:33:16;99518.72;;;9.98;47.45
71697;BME280;68167;59.120;37.898;2023-03-22T11:35:46;99490.84;;;10.05;44.71
71697;BME280;68167;59.120;37.898;2023-03-22T11:38:36;99473.56;;;10.03;48.62
71697;BME280;68167;59.120;37.898;2023-03-22T11:41:30;99493.06;;;10.23;48.07
71697;BME280;68167;59.120;37.898;2023-03-22T11:44:00;99384.72;;;9.94;44.38
71697;BME280;68167;59.120;37.898;2023-03-22T11:46:28;99424.63;;;10.04;44.00
71697;BME280;68167;59.120;37.898;2023-03-22T11:48:57;99436.34;;;10.13;43.79
71697;BME280;68167;59.120;37.898;2023-03-22T11:51:28;99463.31;;;10.32;43.33
71697;BME280;68167;59.120;37.898;2023-03-22T11:54:07;99464.91;;;10.53;45.66
71697;BME280;68167;59.120;37.898;2023-03-22T11:56:39;99484.91;;;11.11;43.14
71697;BME280;68167;59.120;37.898;2023-03-22T11:59:12;99480.91;;;11.34;41.07
71697;BME280;68167;59.120;37.898;2023-03-22T12:01:59;99429.81;;;10.76;44.47
71697;BME280;68167;59.120;37.898;2023-03-22T12:04:34;99470.81;;;10.91;42.14
71697;BME280;68167;59.120;37.898;2023-03-22T12:07:04;99452.97;;;10.76;41.19
71697;BME280;68167;59.120;37.898;2023-03-22T12:09:40;99452.97;;;10.91;41.56
71697;BME280;68167;59.120;37.898;2023-03-22T12:12:29;99481.72;;;11.25;43.18
71697;BME280;68167;59.120;37.898;2023-03-22T12:15:04;99463.38;;;10.87;41.42
71697;BME280;68167;59.120;37.898;2023-03-22T12:22:53;99475.81;;;10.31;41.31
71697;BME280;68167;59.120;37.898;2023-03-22T12:25:32;99472.63;;;10.49;42.42
71697;BME280;68167;59.120;37.898;2023-03-22T12:28:07;99422.84;;;10.45;40.92
71697;BME280;68167;59.120;37.898;2023-03-22T12:30:48;99410.38;;;10.55;42.74
71697;BME280;68167;59.120;37.898;2023-03-22T12:35:47;99410.38;;;10.66;39.31
71697;BME280;68167;59.120;37.898;2023-03-22T12:41:01;99417.03;;;10.63;39.19
71697;BME280;68167;59.120;37.898;2023-03-22T12:43:53;99472.41;;;10.97;42.10
71697;BME280;68167;59.120;37.898;2023-03-22T12:46:24;99454.03;;;10.95;40.10
71697;BME280;68167;59.120;37.898;2023-03-22T12:51:43;99430.06;;;10.60;40.15
71697;BME280;68167;59.120;37.898;2023-03-22T12:54:14;99446.03;;;10.39;40.54
71697;BME280;68167;59.120;37.898;2023-03-22T12:56:44;99446.28;;;10.38;40.92
71697;BME280;68167;59.120;37.898;2023-03-22T12:59:23;99461.50;;;10.83;40.33
71697;BME280;68167;59.120;37.898;2023-03-22T13:02:27;99448.19;;;10.98;41.22
71697;BME280;68167;59.120;37.898;2023-03-22T13:04:56;99451.31;;;11.36;38.73
71697;BME280;68167;59.120;37.898;2023-03-22T13:09:53;99391.09;;;11.35;38.79
71697;BME280;68167;59.120;37.898;2023-03-22T13:27:51;99422.88;;;10.40;40.17
71697;BME280;68167;59.120;37.898;2023-03-22T13:32:53;99386.44;;;9.52;42.12
71697;BME280;68167;59.120;37.898;2023-03-22T13:35:26;99422.34;;;9.60;42.91
71697;BME280;68167;59.120;37.898;2023-03-22T13:38:00;99420.09;;;9.37;43.70
71697;BME280;68167;59.120;37.898;2023-03-22T13:40:48;99402.00;;;9.29;44.53
71697;BME280;68167;59.120;37.898;2023-03-22T13:43:24;99431.50;;;9.32;44.39
71697;BME280;68167;59.120;37.898;2023-03-22T13:46:11;99428.50;;;9.18;44.38
71697;BME280;68167;59.120;37.898;2023-03-22T13:54:09;99430.28;;;9.03;45.74
71697;BME280;68167;59.120;37.898;2023-03-22T13:56:57;99417.88;;;9.18;44.80
71697;BME280;68167;59.120;37.898;2023-03-22T14:04:42;99403.16;;;9.48;44.82
71697;BME280;68167;59.120;37.898;2023-03-22T14:07:26;99338.69;;;9.10;46.90
71697;BME280;68167;59.120;37.898;2023-03-22T14:10:02;99402.09;;;9.49;46.27
71697;BME280;68167;59.120;37.898;2023-03-22T14:12:44;99401.53;;;9.42;44.97
71697;BME280;68167;59.120;37.898;2023-03-22T14:15:15;99407.03;;;9.25;45.67
71697;BME280;68167;59.120;37.898;2023-03-22T14:20:16;99393.00;;;8.87;43.71
71697;BME280;68167;59.120;37.898;2023-03-22T14:22:54;99403.78;;;8.76;45.22
71697;BME280;68167;59.120;37.898;2023-03-22T14:25:26;99398.78;;;8.47;44.76
71697;BME280;68167;59.120;37.898;2023-03-22T14:27:54;99351.72;;;8.06;44.81
71697;BME280;68167;59.120;37.898;2023-03-22T14:32:50;99290.84;;;7.57;44.96
71697;BME280;68167;59.120;37.898;2023-03-22T14:35:20;99332.13;;;7.80;44.55
71697;BME280;68167;59.120;37.898;2023-03-22T14:37:47;99380.63;;;8.07;44.07
71697;BME280;68167;59.120;37.898;2023-03-22T14:40:16;99302.91;;;7.48;45.43
71697;BME280;68167;59.120;37.898;2023-03-22T14:42:52;99330.00;;;7.55;45.61
71697;BME280;68167;59.120;37.898;2023-03-22T14:45:21;99383.84;;;7.87;44.64
71697;BME280;68167;59.120;37.898;2023-03-22T14:47:48;99307.47;;;7.31;45.76
71697;BME280;68167;59.120;37.898;2023-03-22T14:50:18;99389.19;;;7.66;46.51
71697;BME280;68167;59.120;37.898;2023-03-22T14:52:48;99320.66;;;7.25;46.42
71697;BME280;68167;59.120;37.898;2023-03-22T14:55:23;99393.94;;;7.64;47.16
71697;BME280;68167;59.120;37.898;2023-03-22T14:57:56;99243.38;;;6.63;46.74
71697;BME280;68167;59.120;37.898;2023-03-22T15:00:24;99357.28;;;7.34;45.79
71697;BME280;68167;59.120;37.898;2023-03-22T15:05:25;99358.38;;;7.16;45.70
71697;BME280;68167;59.120;37.898;2023-03-22T15:08:21;99368.44;;;7.14;46.13
71697;BME280;68167;59.120;37.898;2023-03-22T15:10:57;99303.72;;;6.66;45.72
71697;BME280;68167;59.120;37.898;2023-03-22T15:13:29;99310.78;;;6.60;46.04
71697;BME280;68167;59.120;37.898;2023-03-22T15:15:55;99344.44;;;6.82;46.77
71697;BME280;68167;59.120;37.898;2023-03-22T15:18:25;99254.53;;;6.26;46.31
71697;BME280;68167;59.120;37.898;2023-03-22T15:20:54;99276.63;;;6.37;46.36
71697;BME280;68167;59.120;37.898;2023-03-22T15:23:33;99347.25;;;6.75;47.81
71697;BME280;68167;59.120;37.898;2023-03-22T15:26:05;99340.19;;;6.64;47.70